Airfield :







YOU CAN JOIN US ON...

 
LOGIN :

Register | Disclaimer

   EN    FR    IT 

 









Legend :    VFR   Marginal VFR   IFR   Intensive IFR   Very Intensive IFR
Visi :
Ceiling :
>= 8 km
>= 3000ft
5 to 8 km
1000 to 3000 ft
1500m to 5 km
500 to 1000 ft
800 to 1500m
200 to 500 ft
< 800m
< 200 ft
Symbols :   Thunderstorms  Fog  Heavy snow  Heavy precipitations  Wind > 20 kt







- Airport Elevation : 1009 ft
- IATA code : ORH


KORH - Worcester Regional

CURRENT METAR :
  • 181054Z 03005KT 10SM CLR 09/05 A3026 RMK AO2 SLP249 T00890050

EXPIRED METARs :
  • 180954Z AUTO 03008KT 10SM OVC048 10/06 A3023 RMK AO2 SLP240 T01000061
  • 180854Z AUTO 03007KT 10SM FEW019 BKN035 11/08 A3022 RMK AO2 SLP235 60000 T01060083 53003

TAF KORH
Valid from the 18 at 09:00 until the 19 at 06:00 UTC


180831Z 1809/1906 03007KT P6SM OVC030
FM181000 03006KT P6SM FEW060
FM181700 05009KT P6SM FEW060 SCT150
FM182200 06006KT P6SM SKC
No reported NOTAMs for that airfield.



MET'MAP, your aeronautical weather chart ! - Copyright ORBIFLY December 2007 - Disclaimer

ORBIFLY MET'MAP TEAM :

Programming & Development : Alexandra Zaïnal
Concept & Development : Baudouin d'Aumeries
Co-Development & Prog : Marc-Olivier Méhu
Technical & hardware support : Manuel Goepfert

Contact : metmap@orbifly.com




SOURCES & CREDITS :

   NOAA